createdAt,value
2023-04-21T00:02:24.730Z,100.00
2023-04-21T00:04:56.655Z,100.00
2023-04-21T00:07:26.314Z,100.00
2023-04-21T00:09:55.880Z,100.00
2023-04-21T00:12:25.497Z,100.00
2023-04-21T00:14:57.616Z,100.00
2023-04-21T00:17:27.938Z,100.00
2023-04-21T00:19:58.709Z,100.00
2023-04-21T00:22:28.329Z,100.00
2023-04-21T00:24:58.471Z,100.00
2023-04-21T00:27:27.997Z,100.00
2023-04-21T00:30:00.206Z,100.00
2023-04-21T00:32:29.848Z,100.00
2023-04-21T00:34:59.485Z,100.00
2023-04-21T00:37:29.055Z,100.00
2023-04-21T00:39:58.786Z,100.00
2023-04-21T00:42:28.500Z,100.00
2023-04-21T00:45:00.610Z,100.00
2023-04-21T00:47:30.183Z,100.00
2023-04-21T00:50:00.240Z,100.00
2023-04-21T00:52:31.030Z,100.00
2023-04-21T00:55:00.957Z,100.00
2023-04-21T00:57:31.422Z,100.00
2023-04-21T01:00:03.824Z,100.00
2023-04-21T01:02:33.582Z,100.00
2023-04-21T01:05:03.359Z,100.00
2023-04-21T01:07:33.206Z,100.00
2023-04-21T01:10:02.994Z,100.00
2023-04-21T01:12:32.652Z,100.00
2023-04-21T01:15:05.090Z,100.00
2023-04-21T01:17:38.591Z,100.00
2023-04-21T01:20:11.832Z,100.00
2023-04-21T01:22:45.503Z,100.00
2023-04-21T01:25:15.242Z,100.00
2023-04-21T01:27:44.789Z,100.00
2023-04-21T01:30:14.930Z,100.00
2023-04-21T01:32:45.615Z,100.00
2023-04-21T01:35:15.368Z,100.00
2023-04-21T01:37:47.575Z,100.00
2023-04-21T01:40:17.181Z,100.00
2023-04-21T01:42:46.897Z,100.00
2023-04-21T01:45:16.566Z,100.00
2023-04-21T01:47:46.237Z,100.00
2023-04-21T01:50:16.392Z,100.00
2023-04-21T01:52:48.560Z,100.00
2023-04-21T01:55:18.517Z,100.00
2023-04-21T01:57:48.030Z,100.00
2023-04-21T02:00:18.586Z,100.00
2023-04-21T02:02:48.219Z,100.00
2023-04-21T02:05:18.036Z,100.00
2023-04-21T02:07:50.427Z,100.00
2023-04-21T02:10:20.409Z,100.00
2023-04-21T02:12:49.969Z,100.00
2023-04-21T02:15:19.491Z,100.00
2023-04-21T02:17:49.076Z,100.00
2023-04-21T02:20:18.646Z,100.00
2023-04-21T02:22:50.770Z,100.00
2023-04-21T02:25:20.339Z,100.00
2023-04-21T02:27:49.876Z,100.00
2023-04-21T02:30:19.517Z,100.00
2023-04-21T02:32:49.138Z,100.00
2023-04-21T02:35:19.149Z,100.00
2023-04-21T02:37:51.270Z,100.00
2023-04-21T02:40:21.418Z,100.00
2023-04-21T02:42:50.959Z,100.00
2023-04-21T02:45:20.627Z,100.00
2023-04-21T02:47:50.175Z,100.00
2023-04-21T02:50:19.753Z,100.00
2023-04-21T02:52:51.860Z,100.00
2023-04-21T02:55:22.710Z,100.00
2023-04-21T02:57:52.238Z,100.00
2023-04-21T03:00:22.398Z,100.00
2023-04-21T03:02:53.595Z,100.00
2023-04-21T03:05:23.485Z,100.00
2023-04-21T03:07:55.598Z,100.00
2023-04-21T03:10:25.182Z,100.00
2023-04-21T03:12:54.731Z,100.00
2023-04-21T03:15:24.320Z,100.00
2023-04-21T03:17:53.937Z,100.00
2023-04-21T03:20:23.698Z,100.00
2023-04-21T03:22:56.285Z,100.00
2023-04-21T03:25:27.672Z,100.00
2023-04-21T03:27:57.277Z,100.00
2023-04-21T03:30:27.817Z,100.00
2023-04-21T03:32:58.972Z,100.00
2023-04-21T03:35:28.737Z,100.00
2023-04-21T03:38:02.032Z,100.00
2023-04-21T03:40:33.358Z,100.00
2023-04-21T03:43:02.888Z,100.00
2023-04-21T03:45:32.710Z,100.00
2023-04-21T03:48:02.411Z,100.00
2023-04-21T03:50:32.301Z,100.00
2023-04-21T03:53:04.429Z,100.00
2023-04-21T03:55:34.008Z,100.00
2023-04-21T03:58:03.617Z,100.00
2023-04-21T04:00:33.189Z,100.00
2023-04-21T04:03:02.870Z,100.00
2023-04-21T04:05:32.562Z,100.00
2023-04-21T04:08:05.005Z,100.00
2023-04-21T04:10:34.582Z,100.00
2023-04-21T04:13:04.174Z,100.00
2023-04-21T04:15:33.764Z,100.00
2023-04-21T04:18:03.413Z,100.00
2023-04-21T04:20:33.104Z,100.00
2023-04-21T04:23:05.251Z,100.00
2023-04-21T04:25:34.780Z,100.00
2023-04-21T04:28:05.550Z,97.11
2023-04-21T04:30:35.560Z,93.15
2023-04-21T04:33:05.754Z,90.17
2023-04-21T04:35:35.400Z,87.04
2023-04-21T04:38:07.804Z,83.91
2023-04-21T04:40:37.481Z,81.58
2023-04-21T04:43:09.027Z,79.69
2023-04-21T04:45:39.077Z,74.86
2023-04-21T04:48:09.560Z,75.61
2023-04-21T04:50:39.071Z,73.43
2023-04-21T04:53:11.266Z,72.37
2023-04-21T04:55:40.855Z,70.28
2023-04-21T04:58:10.490Z,67.28
2023-04-21T05:00:40.068Z,64.31
2023-04-21T05:03:09.760Z,61.19
2023-04-21T05:05:39.432Z,63.43
2023-04-21T05:08:11.683Z,62.58
2023-04-21T05:10:41.262Z,60.89
2023-04-21T05:13:10.827Z,59.21
2023-04-21T05:15:40.427Z,57.64
2023-04-21T05:18:10.450Z,55.01
2023-04-21T05:20:40.010Z,56.38
2023-04-21T05:23:12.185Z,54.09
2023-04-21T05:25:41.790Z,54.61
2023-04-21T05:28:11.436Z,48.08
2023-04-21T05:30:41.162Z,47.54
2023-04-21T05:33:10.810Z,44.83
2023-04-21T05:35:40.598Z,46.73
2023-04-21T05:38:12.689Z,48.96
2023-04-21T05:40:42.277Z,45.70
2023-04-21T05:43:11.806Z,46.59
2023-04-21T05:45:42.829Z,49.11
2023-04-21T05:48:13.586Z,45.83
2023-04-21T05:50:43.455Z,44.67
2023-04-21T05:53:15.661Z,45.19
2023-04-21T05:55:45.166Z,48.75
2023-04-21T05:58:14.701Z,49.94
2023-04-21T06:00:44.291Z,48.82
2023-04-21T06:03:13.870Z,49.69
2023-04-21T06:05:43.583Z,45.70
2023-04-21T06:08:16.061Z,43.61
2023-04-21T06:10:45.587Z,43.70
2023-04-21T06:13:15.144Z,43.83
2023-04-21T06:15:44.780Z,44.18
2023-04-21T06:18:14.809Z,44.12
2023-04-21T06:20:44.429Z,48.92
2023-04-21T06:23:16.556Z,46.65
2023-04-21T06:25:46.098Z,48.22
2023-04-21T06:28:15.694Z,47.59
2023-04-21T06:30:46.114Z,46.15
2023-04-21T06:33:15.622Z,45.09
2023-04-21T06:35:45.165Z,41.39
2023-04-21T06:38:17.309Z,41.77
2023-04-21T06:40:47.395Z,43.75
2023-04-21T06:43:16.942Z,44.49
2023-04-21T06:45:46.473Z,45.29
2023-04-21T06:48:16.098Z,48.13
2023-04-21T06:50:46.702Z,43.69
2023-04-21T06:53:21.816Z,44.95
2023-04-21T06:55:52.517Z,45.20
2023-04-21T06:58:22.099Z,46.25
2023-04-21T07:00:51.648Z,44.76
2023-04-21T07:03:21.309Z,43.00
2023-04-21T07:05:50.955Z,39.61
2023-04-21T07:08:23.056Z,37.67
2023-04-21T07:10:52.600Z,40.66
2023-04-21T07:13:22.204Z,41.11
2023-04-21T07:15:51.864Z,38.04
2023-04-21T07:18:21.429Z,39.49
2023-04-21T07:20:50.969Z,36.61
2023-04-21T07:23:23.113Z,39.76
2023-04-21T07:25:52.672Z,39.62
2023-04-21T07:28:22.222Z,35.89
2023-04-21T07:30:51.844Z,36.55
2023-04-21T07:33:21.397Z,38.03
2023-04-21T07:35:50.871Z,34.77
2023-04-21T07:38:23.028Z,33.54
2023-04-21T07:40:52.557Z,30.21
2023-04-21T07:43:22.430Z,33.42
2023-04-21T07:45:52.828Z,31.41
2023-04-21T07:48:22.456Z,31.69
2023-04-21T07:50:53.452Z,33.78
2023-04-21T07:53:25.597Z,31.26
2023-04-21T07:55:55.123Z,31.79
2023-04-21T07:58:24.848Z,32.28
2023-04-21T08:00:54.800Z,32.06
2023-04-21T08:03:24.934Z,31.60
2023-04-21T08:05:54.701Z,32.30
2023-04-21T08:08:26.969Z,31.68
2023-04-21T08:10:56.516Z,32.02
2023-04-21T08:13:26.241Z,30.08
2023-04-21T08:15:56.032Z,31.09
2023-04-21T08:18:26.062Z,29.92
2023-04-21T08:20:57.634Z,31.29
2023-04-21T08:23:32.401Z,32.15
2023-04-21T08:26:02.164Z,34.38
2023-04-21T08:28:31.686Z,32.83
2023-04-21T08:31:02.472Z,31.80
2023-04-21T08:33:32.079Z,33.20
2023-04-21T08:36:09.892Z,32.05
2023-04-21T08:38:47.904Z,30.15
2023-04-21T08:41:17.513Z,29.65
2023-04-21T08:43:47.067Z,29.88
2023-04-21T08:46:17.680Z,35.78
2023-04-21T08:48:49.489Z,39.15
2023-04-21T08:51:25.021Z,34.53
2023-04-21T08:53:58.062Z,34.22
2023-04-21T08:56:28.723Z,35.70
2023-04-21T08:58:58.254Z,34.21
2023-04-21T09:01:27.886Z,34.41
2023-04-21T09:03:57.615Z,37.00
2023-04-21T09:06:27.822Z,33.02
2023-04-21T09:09:00.013Z,33.12
2023-04-21T09:11:35.998Z,33.72
2023-04-21T09:14:05.575Z,34.39
2023-04-21T09:16:35.952Z,34.22
2023-04-21T09:19:05.661Z,34.92
2023-04-21T09:21:35.168Z,32.10
2023-04-21T09:24:10.335Z,31.55
2023-04-21T09:26:39.855Z,30.70
2023-04-21T09:29:09.733Z,31.11
2023-04-21T09:31:39.382Z,34.52
2023-04-21T09:34:21.173Z,33.74
2023-04-21T09:36:50.744Z,30.28
2023-04-21T09:39:40.612Z,30.73
2023-04-21T09:42:15.782Z,31.15
2023-04-21T09:44:53.246Z,31.19
2023-04-21T09:47:32.389Z,31.48
2023-04-21T09:50:02.746Z,31.12
2023-04-21T09:52:33.786Z,31.48
2023-04-21T09:55:08.431Z,31.86
2023-04-21T09:57:42.216Z,29.80
2023-04-21T10:00:17.210Z,32.38
2023-04-21T10:02:49.929Z,32.62
2023-04-21T10:05:19.690Z,32.64
2023-04-21T10:07:50.670Z,33.92
2023-04-21T10:10:27.339Z,33.25
2023-04-21T10:12:57.736Z,32.37
2023-04-21T13:05:32.394Z,32.85
2023-04-21T13:08:01.927Z,32.99
2023-04-21T13:10:31.827Z,33.90
2023-04-21T13:13:01.369Z,34.17
2023-04-21T13:15:30.955Z,34.59
2023-04-21T13:18:01.189Z,34.90
2023-04-21T13:20:33.386Z,33.50
2023-04-21T13:23:02.927Z,33.77
2023-04-21T13:25:32.489Z,34.11
2023-04-21T13:28:02.002Z,33.88
2023-04-21T13:30:31.536Z,33.67
2023-04-21T13:33:01.166Z,34.96
2023-04-21T13:35:33.355Z,34.25
2023-04-21T13:38:02.872Z,34.39
2023-04-21T13:40:32.605Z,34.75
2023-04-21T13:43:02.306Z,34.34
2023-04-21T13:45:32.003Z,34.54
2023-04-21T13:48:01.599Z,34.78
2023-04-21T13:50:33.734Z,34.60
2023-04-21T13:53:03.264Z,34.23
2023-04-21T13:55:32.884Z,33.82
2023-04-21T13:58:02.745Z,34.22
2023-04-21T14:00:32.345Z,33.11
2023-04-21T14:03:02.288Z,33.33
2023-04-21T14:05:34.764Z,33.37
2023-04-21T14:08:04.765Z,33.00
2023-04-21T14:10:34.249Z,33.11
2023-04-21T14:13:04.178Z,33.37
2023-04-21T14:15:33.879Z,34.92
2023-04-21T14:18:03.526Z,34.30
2023-04-21T14:20:35.754Z,33.86
2023-04-21T14:23:05.435Z,34.50
2023-04-21T14:25:35.106Z,34.55
2023-04-21T14:28:07.414Z,34.57
2023-04-21T14:30:37.901Z,34.98
2023-04-21T14:33:08.159Z,35.22
2023-04-21T14:35:42.252Z,35.18
2023-04-21T14:38:11.821Z,35.64
2023-04-21T14:40:41.371Z,35.46
2023-04-21T14:43:11.555Z,35.21
2023-04-21T14:45:41.501Z,35.61
2023-04-21T14:48:11.937Z,36.19
2023-04-21T14:50:44.368Z,36.50
2023-04-21T14:53:14.008Z,37.16
2023-04-21T14:55:43.544Z,37.61
2023-04-21T14:58:13.122Z,37.77
2023-04-21T15:00:42.732Z,38.48
2023-04-21T15:03:12.680Z,38.37
2023-04-21T15:05:44.944Z,38.73
2023-04-21T15:08:18.168Z,38.62
2023-04-21T15:10:47.868Z,37.81
2023-04-21T15:13:17.572Z,36.45
2023-04-21T15:15:47.090Z,36.57
2023-04-21T15:18:16.762Z,36.79
2023-04-21T15:20:48.944Z,36.58
2023-04-21T15:23:19.781Z,35.77
2023-04-21T15:25:49.786Z,35.79
2023-04-21T15:28:19.279Z,35.06
2023-04-21T15:30:48.929Z,35.82
2023-04-21T15:33:18.494Z,36.34
2023-04-21T15:35:50.614Z,36.82
2023-04-21T15:38:21.310Z,37.41
2023-04-21T15:41:00.631Z,37.41
2023-04-21T15:43:31.826Z,36.74
2023-04-21T15:46:01.552Z,37.97
2023-04-21T15:48:31.295Z,38.42
2023-04-21T15:51:04.832Z,38.50
2023-04-21T15:53:37.578Z,39.23
2023-04-21T15:56:07.356Z,39.38
2023-04-21T15:58:36.898Z,39.84
2023-04-21T16:01:07.175Z,40.33
2023-04-21T16:03:37.166Z,40.55
2023-04-21T16:06:10.892Z,40.50
2023-04-21T16:08:40.652Z,40.86
2023-04-21T16:11:10.301Z,41.23
2023-04-21T16:13:39.938Z,41.24
2023-04-21T16:16:10.008Z,41.65
2023-04-21T16:18:39.776Z,41.75
2023-04-21T16:21:12.120Z,41.87
2023-04-21T16:23:41.851Z,42.53
2023-04-21T16:26:11.705Z,42.29
2023-04-21T16:28:41.297Z,42.46
2023-04-21T16:31:11.224Z,43.04
2023-04-21T16:33:40.834Z,43.10
2023-04-21T16:36:13.259Z,42.51
2023-04-21T16:38:45.733Z,42.49
2023-04-21T16:41:17.199Z,41.99
2023-04-21T16:43:47.933Z,41.79
2023-04-21T16:46:17.813Z,42.02
2023-04-21T16:48:47.414Z,41.68
2023-04-21T16:51:19.618Z,42.11
2023-04-21T16:53:49.181Z,41.87
2023-04-21T16:56:20.441Z,41.93
2023-04-21T16:58:50.105Z,41.77
2023-04-21T17:01:19.752Z,41.72
2023-04-21T17:03:49.395Z,42.31
2023-04-21T17:06:22.052Z,42.55
2023-04-21T17:08:53.177Z,42.90
2023-04-21T17:11:22.718Z,43.12
2023-04-21T17:13:52.230Z,43.43
2023-04-21T17:16:21.825Z,43.63
2023-04-21T17:18:51.507Z,43.08
2023-04-21T17:21:23.634Z,43.36
2023-04-21T17:23:53.230Z,43.84
2023-04-21T17:26:23.538Z,44.10
2023-04-21T17:28:53.112Z,44.18
2023-04-21T17:31:22.708Z,44.55
2023-04-21T17:33:52.808Z,44.56
2023-04-21T17:36:25.307Z,45.39
2023-04-21T17:38:54.907Z,46.04
2023-04-21T17:41:24.948Z,46.51
2023-04-21T17:43:55.029Z,46.29
2023-04-21T17:46:25.337Z,46.51
2023-04-21T17:48:55.170Z,46.73
2023-04-21T17:51:28.918Z,47.00
2023-04-21T17:53:58.430Z,47.43
2023-04-21T17:56:28.013Z,47.88
2023-04-21T17:58:57.534Z,48.74
2023-04-21T18:01:27.090Z,48.74
2023-04-21T18:04:00.607Z,49.05
2023-04-21T18:06:33.356Z,49.46
2023-04-21T18:09:03.005Z,51.02
2023-04-21T18:11:32.564Z,52.42
2023-04-21T18:14:02.716Z,52.69
2023-04-21T18:16:32.357Z,53.40
2023-04-21T18:19:02.005Z,53.65
2023-04-21T18:21:34.294Z,54.34
2023-04-21T18:24:04.237Z,54.37
2023-04-21T18:26:33.742Z,54.67
2023-04-21T18:29:03.350Z,55.18
2023-04-21T18:31:33.531Z,55.81
2023-04-21T18:34:03.167Z,56.21
2023-04-21T18:36:36.998Z,56.77
2023-04-21T18:39:08.174Z,57.64
2023-04-21T18:41:37.745Z,58.09
2023-04-21T18:44:08.544Z,58.71
2023-04-21T18:46:38.186Z,59.47
2023-04-21T18:49:07.749Z,59.92
2023-04-21T18:51:39.976Z,60.37
2023-04-21T18:54:09.547Z,61.34
2023-04-21T18:56:39.179Z,62.70
2023-04-21T18:59:09.883Z,62.50
2023-04-21T19:01:40.635Z,62.64
2023-04-21T19:04:12.027Z,61.90
2023-04-21T19:06:44.300Z,62.24
2023-04-21T19:09:14.013Z,62.23
2023-04-21T19:11:43.595Z,61.92
2023-04-21T19:14:13.231Z,61.41
2023-04-21T19:16:43.072Z,60.98
2023-04-21T19:19:12.686Z,61.01
2023-04-21T19:21:44.819Z,61.12
2023-04-21T19:24:14.371Z,60.94
2023-04-21T19:26:43.973Z,60.79
2023-04-21T19:29:15.125Z,61.42
2023-04-21T19:31:44.769Z,61.48
2023-04-21T19:34:14.808Z,61.08
2023-04-21T19:36:47.071Z,61.41
2023-04-21T19:39:16.567Z,61.61
2023-04-21T19:41:46.662Z,61.22
2023-04-21T19:44:16.267Z,61.17
2023-04-21T19:46:46.102Z,61.50
2023-04-21T19:49:15.943Z,60.96
2023-04-21T19:51:48.074Z,60.64
2023-04-21T19:54:17.962Z,60.60
2023-04-21T19:56:47.920Z,60.67
2023-04-21T19:59:18.384Z,60.96
2023-04-21T20:01:47.995Z,60.87
2023-04-21T20:04:17.777Z,60.78
2023-04-21T20:06:50.386Z,61.41
2023-04-21T20:09:19.927Z,61.54
2023-04-21T20:11:49.997Z,61.47
2023-04-21T20:14:20.526Z,61.40
2023-04-21T20:16:50.137Z,61.92
2023-04-21T20:19:22.948Z,61.05
2023-04-21T20:21:55.104Z,61.56
2023-04-21T20:24:24.603Z,61.96
2023-04-21T20:26:54.199Z,62.29
2023-04-21T20:29:23.742Z,62.72
2023-04-21T20:31:53.339Z,63.36
2023-04-21T20:34:23.079Z,62.75
2023-04-21T20:36:56.063Z,62.81
2023-04-21T20:39:25.986Z,62.71
2023-04-21T20:42:08.852Z,62.93
2023-04-21T20:44:42.956Z,63.47
2023-04-21T20:47:13.897Z,64.45
2023-04-21T20:49:43.664Z,64.46
2023-04-21T20:52:16.167Z,64.49
2023-04-21T20:54:45.711Z,64.94
2023-04-21T20:57:15.289Z,65.95
2023-04-21T20:59:44.845Z,65.94
2023-04-21T21:02:14.484Z,65.91
2023-04-21T21:04:44.069Z,66.16
2023-04-21T21:07:16.315Z,66.26
2023-04-21T21:09:45.878Z,66.67
2023-04-21T21:12:15.435Z,67.18
2023-04-21T21:14:45.182Z,67.31
2023-04-21T21:17:16.809Z,67.43
2023-04-21T21:19:46.460Z,67.69
2023-04-21T21:22:18.565Z,67.78
2023-04-21T21:24:50.529Z,68.14
2023-04-21T21:27:20.184Z,67.93
2023-04-21T21:29:49.705Z,68.06
2023-04-21T21:32:19.741Z,68.31
2023-04-21T21:34:49.805Z,67.97
2023-04-21T21:37:23.581Z,68.39
2023-04-21T21:39:55.068Z,67.99
2023-04-21T21:42:24.690Z,68.06
2023-04-21T21:44:54.277Z,68.34
2023-04-21T21:47:23.923Z,68.48
2023-04-21T21:49:55.218Z,69.47
2023-04-21T21:52:28.729Z,69.97
2023-04-21T21:54:58.598Z,71.61
2023-04-21T21:57:28.601Z,71.55
2023-04-21T22:00:00.530Z,72.25
2023-04-21T22:02:30.506Z,72.80
2023-04-21T22:05:00.833Z,72.58
2023-04-21T22:07:33.031Z,73.30
2023-04-21T22:10:02.564Z,73.34
2023-04-21T22:12:34.147Z,73.66
2023-04-21T22:15:03.825Z,74.01
2023-04-21T22:17:34.810Z,74.37
2023-04-21T22:20:08.532Z,75.12
2023-04-21T22:22:40.942Z,75.56
2023-04-21T22:25:11.439Z,75.61
2023-04-21T22:27:41.712Z,75.92
2023-04-21T22:30:12.302Z,74.89
2023-04-21T22:32:41.855Z,73.51
2023-04-21T22:35:11.980Z,72.79
2023-04-21T22:37:44.766Z,73.34
2023-04-21T22:40:14.710Z,73.06
2023-04-21T22:42:44.746Z,72.12
2023-04-21T22:45:14.690Z,72.45
2023-04-21T22:47:44.285Z,72.81
2023-04-21T22:50:15.048Z,72.71
2023-04-21T22:52:47.212Z,73.14
2023-04-21T22:55:16.851Z,74.02
2023-04-21T22:57:46.484Z,74.14
2023-04-21T23:00:16.569Z,74.03
2023-04-21T23:02:46.185Z,73.37
2023-04-21T23:05:16.003Z,72.45
2023-04-21T23:07:48.147Z,72.45
2023-04-21T23:10:17.656Z,72.82
2023-04-21T23:12:47.227Z,73.34
2023-04-21T23:15:16.778Z,74.01
2023-04-21T23:17:46.563Z,74.86
2023-04-21T23:20:16.187Z,75.51
2023-04-21T23:22:48.324Z,75.86
2023-04-21T23:25:17.926Z,76.79
2023-04-21T23:27:47.516Z,77.13
2023-04-21T23:30:17.405Z,77.87
2023-04-21T23:32:46.996Z,78.09
2023-04-21T23:35:16.513Z,78.26
2023-04-21T23:37:48.984Z,78.25
2023-04-21T23:40:18.689Z,77.98
2023-04-21T23:42:48.405Z,77.93
2023-04-21T23:45:18.078Z,77.24
2023-04-21T23:47:47.992Z,76.30
2023-04-21T23:50:17.575Z,76.43
2023-04-21T23:52:49.713Z,77.52
2023-04-21T23:55:19.274Z,78.14
2023-04-21T23:57:48.852Z,79.30
